createdAt,value
2023-02-17T00:00:57.861Z,123.97
2023-02-17T00:03:25.538Z,136.07
2023-02-17T00:05:53.315Z,130.20
2023-02-17T00:08:20.725Z,131.63
2023-02-17T00:10:57.481Z,120.93
2023-02-17T00:13:24.799Z,134.13
2023-02-17T00:15:52.214Z,126.47
2023-02-17T00:18:19.636Z,134.02
2023-02-17T00:20:46.734Z,134.23
2023-02-17T00:23:13.798Z,143.98
2023-02-17T00:25:41.083Z,136.88
2023-02-17T00:28:08.106Z,150.00
2023-02-17T00:30:35.236Z,136.82
2023-02-17T00:33:02.307Z,137.82
2023-02-17T00:35:29.520Z,139.30
2023-02-17T00:37:56.572Z,153.18
2023-02-17T00:40:23.786Z,137.05
2023-02-17T00:42:51.009Z,147.93
2023-02-17T00:45:18.506Z,145.07
2023-02-17T00:47:45.591Z,149.25
2023-02-17T00:50:12.615Z,144.20
2023-02-17T00:52:39.861Z,145.85
2023-02-17T00:55:07.920Z,143.65
2023-02-17T00:57:36.428Z,145.50
2023-02-17T01:00:04.899Z,148.77
2023-02-17T01:02:33.939Z,137.18
2023-02-17T01:05:01.105Z,155.50
2023-02-17T01:07:28.190Z,146.18
2023-02-17T01:09:55.348Z,143.27
2023-02-17T01:12:22.378Z,136.63
2023-02-17T01:14:51.959Z,146.07
2023-02-17T01:17:19.254Z,130.93
2023-02-17T01:19:46.648Z,140.18
2023-02-17T01:22:13.848Z,126.25
2023-02-17T01:24:40.984Z,132.88
2023-02-17T01:27:08.278Z,135.00
2023-02-17T01:29:35.299Z,135.63
2023-02-17T01:32:04.039Z,144.45
2023-02-17T01:34:31.142Z,148.50
2023-02-17T01:36:59.584Z,127.43
2023-02-17T01:39:26.696Z,129.20
2023-02-17T01:41:53.886Z,132.32
2023-02-17T01:44:26.206Z,125.03
2023-02-17T01:46:55.192Z,125.82
2023-02-17T01:49:28.182Z,126.82
2023-02-17T01:52:13.853Z,122.22
2023-02-17T01:54:55.526Z,114.90
2023-02-17T01:57:26.771Z,125.10
2023-02-17T01:59:54.642Z,121.00
2023-02-17T02:02:22.627Z,112.22
2023-02-17T02:04:53.335Z,116.00
2023-02-17T02:07:32.348Z,124.47
2023-02-17T02:09:59.857Z,126.30
2023-02-17T02:12:33.266Z,118.40
2023-02-17T02:15:18.506Z,121.93
2023-02-17T02:18:37.059Z,124.45
2023-02-17T02:21:26.185Z,113.45
2023-02-17T02:24:06.725Z,122.13
2023-02-17T02:26:42.802Z,114.88
2023-02-17T02:29:43.823Z,135.73
2023-02-17T02:32:48.880Z,118.15
2023-02-17T02:35:39.089Z,113.32
2023-02-17T02:38:10.886Z,110.93
2023-02-17T02:40:43.182Z,114.00
2023-02-17T02:43:10.692Z,104.00
2023-02-17T02:45:37.996Z,107.05
2023-02-17T02:48:05.195Z,121.47
2023-02-17T02:50:57.901Z,123.38
2023-02-17T02:53:39.022Z,114.43
2023-02-17T02:56:22.531Z,108.32
2023-02-17T02:58:53.399Z,104.80
2023-02-17T03:01:26.415Z,102.18
2023-02-17T03:04:08.972Z,105.72
2023-02-17T03:06:51.138Z,100.55
2023-02-17T03:09:22.860Z,90.53
2023-02-17T03:11:51.133Z,99.75
2023-02-17T03:14:20.722Z,87.40
2023-02-17T03:16:48.336Z,103.10
2023-02-17T03:19:19.426Z,95.60
2023-02-17T03:21:57.333Z,92.75
2023-02-17T03:24:24.604Z,93.88
2023-02-17T03:26:51.771Z,93.50
2023-02-17T03:29:18.974Z,100.25
2023-02-17T03:31:46.106Z,98.53
2023-02-17T03:34:13.302Z,100.13
2023-02-17T03:36:40.605Z,97.28
2023-02-17T03:39:08.199Z,101.85
2023-02-17T03:41:35.403Z,95.07
2023-02-17T03:44:02.554Z,103.85
2023-02-17T03:46:29.639Z,109.13
2023-02-17T03:48:56.948Z,91.93
2023-02-17T03:51:25.239Z,90.18
2023-02-17T03:53:53.164Z,96.53
2023-02-17T03:56:20.673Z,94.10
2023-02-17T03:58:47.789Z,98.72
2023-02-17T04:01:15.068Z,90.47
2023-02-17T04:03:42.754Z,100.50
2023-02-17T04:06:10.681Z,91.95
2023-02-17T04:08:38.428Z,91.43
2023-02-17T04:11:07.039Z,94.38
2023-02-17T04:13:34.774Z,92.75
2023-02-17T04:16:04.339Z,102.28
2023-02-17T04:18:32.444Z,103.32
2023-02-17T04:20:59.960Z,98.32
2023-02-17T04:23:27.750Z,93.10
2023-02-17T04:25:54.836Z,91.50
2023-02-17T04:28:23.127Z,96.13
2023-02-17T04:30:51.093Z,85.68
2023-02-17T04:33:18.869Z,91.57
2023-02-17T04:35:47.405Z,94.82
2023-02-17T04:38:14.534Z,103.13
2023-02-17T04:40:42.017Z,91.22
2023-02-17T04:43:09.254Z,100.65
2023-02-17T04:45:37.349Z,103.30
2023-02-17T04:48:04.414Z,106.13
2023-02-17T04:50:31.449Z,101.43
2023-02-17T04:52:58.651Z,101.30
2023-02-17T04:55:25.997Z,103.97
2023-02-17T04:57:53.075Z,116.15
2023-02-17T05:00:20.633Z,102.75
2023-02-17T05:02:47.778Z,103.72
2023-02-17T05:05:19.019Z,106.95
2023-02-17T05:07:46.725Z,104.45
2023-02-17T05:10:15.935Z,103.60
2023-02-17T05:12:43.279Z,113.60
2023-02-17T05:15:11.584Z,115.95
2023-02-17T05:17:39.237Z,111.72
2023-02-17T05:20:07.716Z,107.05
2023-02-17T05:22:34.800Z,101.93
2023-02-17T05:25:02.025Z,113.63
2023-02-17T05:27:29.142Z,102.75
2023-02-17T05:29:56.157Z,93.35
2023-02-17T05:32:23.404Z,99.53
2023-02-17T05:34:50.632Z,99.20
2023-02-17T05:37:17.835Z,100.30
2023-02-17T05:39:44.853Z,88.10
2023-02-17T05:42:12.005Z,94.10
2023-02-17T05:44:39.072Z,99.30
2023-02-17T05:47:06.247Z,88.95
2023-02-17T05:49:33.347Z,90.25
2023-02-17T05:52:00.344Z,93.18
2023-02-17T05:54:27.397Z,87.70
2023-02-17T05:56:54.521Z,91.45
2023-02-17T05:59:21.569Z,82.68
2023-02-17T06:01:48.687Z,87.07
2023-02-17T06:04:15.825Z,89.50
2023-02-17T06:06:42.958Z,89.15
2023-02-17T06:09:10.014Z,75.50
2023-02-17T06:11:37.136Z,76.72
2023-02-17T06:14:04.342Z,70.40
2023-02-17T06:16:31.617Z,81.82
2023-02-17T06:19:00.425Z,73.82
2023-02-17T06:21:27.438Z,68.82
2023-02-17T06:23:54.854Z,66.82
2023-02-17T06:26:22.222Z,74.55
2023-02-17T06:28:49.337Z,69.28
2023-02-17T06:31:16.472Z,71.63
2023-02-17T06:33:43.593Z,68.97
2023-02-17T06:36:11.053Z,74.40
2023-02-17T06:38:38.268Z,89.40
2023-02-17T06:41:05.484Z,79.47
2023-02-17T06:43:32.591Z,83.30
2023-02-17T06:45:59.674Z,78.65
2023-02-17T06:48:27.053Z,84.45
2023-02-17T06:50:54.107Z,78.85
2023-02-17T06:53:21.199Z,115.90
2023-02-17T06:55:48.515Z,95.40
2023-02-17T06:58:15.642Z,94.50
2023-02-17T07:00:42.781Z,106.10
2023-02-17T07:03:09.908Z,103.68
2023-02-17T07:05:37.764Z,89.18
2023-02-17T07:08:05.506Z,82.00
2023-02-17T07:10:32.943Z,86.43
2023-02-17T07:13:00.125Z,86.00
2023-02-17T07:15:27.303Z,84.25
2023-02-17T07:17:57.418Z,93.15
2023-02-17T07:20:24.575Z,86.30
2023-02-17T07:22:52.471Z,93.90
2023-02-17T07:25:19.670Z,106.85
2023-02-17T07:27:46.749Z,95.07
2023-02-17T07:30:14.309Z,108.90
2023-02-17T07:32:41.517Z,93.22
2023-02-17T07:35:08.853Z,98.15
2023-02-17T07:37:36.105Z,107.97
2023-02-17T07:40:04.264Z,98.35
2023-02-17T07:42:31.397Z,87.25
2023-02-17T07:44:58.738Z,90.45
2023-02-17T07:47:26.043Z,93.97
2023-02-17T07:49:53.192Z,97.63
2023-02-17T07:52:20.306Z,95.15
2023-02-17T07:54:47.446Z,99.00
2023-02-17T07:57:14.513Z,102.97
2023-02-17T07:59:41.640Z,96.70
2023-02-17T08:02:11.702Z,93.32
2023-02-17T08:04:38.830Z,95.07
2023-02-17T08:07:05.872Z,82.40
2023-02-17T08:09:51.451Z,91.85
2023-02-17T08:12:39.069Z,86.13
2023-02-17T08:15:08.698Z,85.85
2023-02-17T08:17:35.885Z,95.03
2023-02-17T08:20:08.729Z,92.53
2023-02-17T08:22:37.065Z,93.97
2023-02-17T08:25:06.324Z,98.80
2023-02-17T08:27:33.662Z,95.97
2023-02-17T08:30:00.824Z,101.38
2023-02-17T08:32:28.169Z,105.97
2023-02-17T08:34:58.601Z,156.25
2023-02-17T08:37:25.745Z,160.15
2023-02-17T08:39:53.217Z,214.65
2023-02-17T08:42:20.454Z,121.90
2023-02-17T08:44:47.601Z,104.72
2023-02-17T08:47:15.326Z,95.38
2023-02-17T08:49:42.664Z,93.50
2023-02-17T08:52:09.790Z,106.00
2023-02-17T08:54:37.746Z,92.57
2023-02-17T08:57:04.896Z,87.20
2023-02-17T08:59:32.359Z,92.75
2023-02-17T09:01:59.656Z,90.75
2023-02-17T09:04:26.808Z,86.07
2023-02-17T09:06:58.572Z,78.68
2023-02-17T09:09:30.200Z,90.95
2023-02-17T09:11:58.587Z,81.18
2023-02-17T09:14:25.962Z,82.80
2023-02-17T09:16:54.472Z,80.55
2023-02-17T09:19:22.121Z,82.97
2023-02-17T09:21:49.383Z,77.00
2023-02-17T09:24:18.039Z,77.03
2023-02-17T09:26:45.264Z,66.93
2023-02-17T09:29:12.439Z,81.72
2023-02-17T09:31:39.729Z,74.18
2023-02-17T09:34:06.849Z,79.30
2023-02-17T09:36:38.468Z,76.30
2023-02-17T09:39:05.709Z,71.78
2023-02-17T09:41:47.829Z,77.45
2023-02-17T09:44:26.071Z,72.37
2023-02-17T09:47:05.570Z,75.93
2023-02-17T09:49:45.064Z,74.75
2023-02-17T09:52:29.626Z,68.47
2023-02-17T09:55:35.260Z,79.88
2023-02-17T09:58:42.968Z,62.03
2023-02-17T10:01:18.035Z,68.00
2023-02-17T10:03:50.810Z,65.63
2023-02-17T10:09:31.109Z,59.80
2023-02-17T10:12:13.946Z,65.03
2023-02-17T10:14:50.021Z,64.63
2023-02-17T10:17:34.152Z,66.68
2023-02-17T10:20:05.487Z,61.83
2023-02-17T10:22:33.794Z,68.20
2023-02-17T10:25:03.862Z,58.38
2023-02-17T10:27:46.360Z,59.35
2023-02-17T10:30:20.403Z,65.55
2023-02-17T10:33:10.172Z,60.08
2023-02-17T10:35:52.734Z,58.78
2023-02-17T10:38:53.681Z,64.53
2023-02-17T10:41:26.120Z,62.72
2023-02-17T10:43:53.632Z,58.17
2023-02-17T10:46:29.323Z,59.75
2023-02-17T10:48:58.987Z,60.17
2023-02-17T10:51:29.948Z,65.20
2023-02-17T10:54:43.579Z,58.60
2023-02-17T10:57:13.403Z,60.80
2023-02-17T10:59:43.265Z,63.00
2023-02-17T11:02:21.234Z,58.63
2023-02-17T11:04:52.223Z,57.33
2023-02-17T11:07:27.089Z,64.00
2023-02-17T11:10:00.003Z,56.90
2023-02-17T11:12:34.561Z,55.78
2023-02-17T11:15:04.550Z,61.60
2023-02-17T11:17:38.856Z,54.38
2023-02-17T11:20:30.051Z,58.30
2023-02-17T11:23:14.855Z,61.70
2023-02-17T11:25:44.175Z,60.38
2023-02-17T11:28:14.886Z,60.85
2023-02-17T11:30:51.258Z,64.65
2023-02-17T11:33:31.910Z,65.93
2023-02-17T11:36:00.387Z,59.13
2023-02-17T11:38:33.954Z,67.20
2023-02-17T11:41:04.688Z,61.30
2023-02-17T11:43:33.277Z,64.18
2023-02-17T11:46:11.405Z,56.97
2023-02-17T11:49:13.121Z,62.55
2023-02-17T11:51:40.403Z,64.30
2023-02-17T11:54:31.720Z,63.17
2023-02-17T11:56:59.110Z,64.32
2023-02-17T11:59:55.757Z,65.30
2023-02-17T12:02:49.448Z,64.68
2023-02-17T12:05:27.394Z,68.13
2023-02-17T12:08:17.550Z,102.05
2023-02-17T12:11:18.887Z,133.10
2023-02-17T12:14:09.498Z,156.38
2023-02-17T12:16:47.460Z,176.00
2023-02-17T12:19:30.597Z,86.43
2023-02-17T12:24:43.718Z,74.70
2023-02-17T12:27:35.652Z,64.22
2023-02-17T12:30:27.907Z,69.43
2023-02-17T12:33:16.502Z,72.15
2023-02-17T12:35:58.150Z,100.28
2023-02-17T12:38:30.642Z,81.28
2023-02-17T12:41:09.741Z,94.18
2023-02-17T12:43:58.524Z,77.03
2023-02-17T12:46:37.265Z,84.80
2023-02-17T12:49:17.993Z,76.50
2023-02-17T12:51:52.345Z,77.07
2023-02-17T12:54:42.404Z,80.90
2023-02-17T12:57:18.525Z,73.88
2023-02-17T12:59:53.865Z,114.30
2023-02-17T13:02:24.061Z,63.75
2023-02-17T13:04:53.988Z,55.50
2023-02-17T13:07:43.754Z,54.85
2023-02-17T13:10:22.037Z,57.55
2023-02-17T13:13:11.972Z,55.58
2023-02-17T13:15:45.321Z,55.45
2023-02-17T13:18:28.200Z,53.42
2023-02-17T13:20:59.575Z,49.25
2023-02-17T13:23:40.244Z,54.25
2023-02-17T13:26:32.328Z,43.78
2023-02-17T13:29:24.971Z,48.15
2023-02-17T13:32:27.388Z,47.83
2023-02-17T13:35:02.589Z,63.92
2023-02-17T13:37:33.149Z,48.67
2023-02-17T13:40:18.968Z,50.40
2023-02-17T13:42:50.162Z,70.63
2023-02-17T13:45:35.171Z,63.78
2023-02-17T13:48:15.049Z,56.42
2023-02-17T13:50:52.357Z,57.08
2023-02-17T13:53:39.260Z,54.78
2023-02-17T13:56:28.082Z,55.03
2023-02-17T13:59:10.801Z,51.10
2023-02-17T14:01:42.279Z,64.88
2023-02-17T14:04:32.032Z,55.53
2023-02-17T14:07:01.546Z,58.85
2023-02-17T14:09:32.091Z,61.63
2023-02-17T14:12:03.205Z,67.28
2023-02-17T14:14:37.556Z,56.03
2023-02-17T14:17:32.636Z,60.17
2023-02-17T14:20:01.095Z,65.28
2023-02-17T14:22:37.067Z,58.50
2023-02-17T14:25:17.251Z,65.78
2023-02-17T14:27:47.725Z,62.55
2023-02-17T14:30:29.450Z,70.20
2023-02-17T14:33:20.884Z,65.95
2023-02-17T14:36:04.480Z,71.72
2023-02-17T14:38:39.961Z,69.60
2023-02-17T14:41:11.705Z,64.45
2023-02-17T14:43:39.358Z,69.82
2023-02-17T14:46:07.436Z,89.32
2023-02-17T14:48:35.070Z,87.63
2023-02-17T14:51:03.055Z,77.10
2023-02-17T14:53:33.557Z,70.35
2023-02-17T14:56:07.739Z,68.70
2023-02-17T14:58:37.084Z,71.20
2023-02-17T15:01:06.052Z,79.05
2023-02-17T15:03:33.790Z,78.53
2023-02-17T15:06:01.689Z,75.85
2023-02-17T15:08:35.228Z,101.88
2023-02-17T15:11:03.802Z,80.75
2023-02-17T15:13:32.232Z,69.05
2023-02-17T15:16:00.806Z,80.78
2023-02-17T15:18:28.570Z,92.43
2023-02-17T15:20:57.624Z,71.57
2023-02-17T15:23:28.375Z,69.05
2023-02-17T15:25:56.864Z,68.15
2023-02-17T15:28:24.865Z,65.97
2023-02-17T15:30:55.255Z,68.60
2023-02-17T15:33:24.963Z,71.10
2023-02-17T15:35:54.609Z,72.88
2023-02-17T15:38:23.613Z,65.87
2023-02-17T15:40:51.673Z,65.72
2023-02-17T15:43:23.338Z,75.05
2023-02-17T15:45:51.199Z,67.78
2023-02-17T15:48:24.654Z,75.10
2023-02-17T15:50:53.145Z,85.75
2023-02-17T15:53:21.036Z,78.75
2023-02-17T15:55:49.482Z,78.95
2023-02-17T15:58:19.502Z,78.38
2023-02-17T16:00:48.748Z,81.13
2023-02-17T16:03:17.110Z,90.47
2023-02-17T16:05:45.263Z,75.78
2023-02-17T16:08:12.719Z,80.30
2023-02-17T16:10:42.870Z,85.07
2023-02-17T16:13:16.430Z,88.60
2023-02-17T16:15:45.454Z,87.55
2023-02-17T16:18:25.926Z,84.65
2023-02-17T16:20:54.084Z,78.35
2023-02-17T16:23:22.754Z,85.50
2023-02-17T16:25:53.552Z,81.20
2023-02-17T16:28:22.647Z,79.38
2023-02-17T16:30:51.156Z,85.07
2023-02-17T16:33:19.539Z,81.28
2023-02-17T16:35:50.068Z,91.43
2023-02-17T16:38:24.129Z,88.30
2023-02-17T16:40:55.947Z,99.90
2023-02-17T16:43:27.991Z,96.47
2023-02-17T16:45:58.875Z,99.38
2023-02-17T16:48:32.209Z,97.78
2023-02-17T16:51:00.935Z,94.85
2023-02-17T16:53:29.015Z,101.85
2023-02-17T16:55:57.314Z,93.35
2023-02-17T16:58:32.186Z,87.47
2023-02-17T17:01:13.054Z,96.38
2023-02-17T17:03:44.360Z,88.35
2023-02-17T17:06:25.711Z,89.22
2023-02-17T17:08:55.150Z,83.93
2023-02-17T17:11:25.670Z,92.20
2023-02-17T17:13:53.854Z,92.05
2023-02-17T17:16:33.031Z,95.85
2023-02-17T17:19:06.187Z,93.25
2023-02-17T17:21:34.920Z,96.00
2023-02-17T17:24:02.935Z,91.40
2023-02-17T17:26:43.989Z,90.78
2023-02-17T17:29:19.206Z,84.20
2023-02-17T17:31:48.046Z,97.28
2023-02-17T17:34:17.188Z,80.05
2023-02-17T17:36:47.959Z,87.05
2023-02-17T17:39:21.132Z,87.70
2023-02-17T17:41:50.698Z,82.07
2023-02-17T17:44:20.192Z,99.90
2023-02-17T17:46:49.705Z,104.70
2023-02-17T17:49:19.221Z,109.95
2023-02-17T17:51:48.976Z,108.30
2023-02-17T17:54:18.800Z,123.53
2023-02-17T17:56:48.398Z,152.23
2023-02-17T17:59:16.456Z,272.10
2023-02-17T18:01:45.959Z,251.52
2023-02-17T18:04:14.973Z,191.30
2023-02-17T18:06:46.226Z,131.00
2023-02-17T18:09:31.389Z,124.82
2023-02-17T18:12:05.163Z,115.80
2023-02-17T18:14:39.649Z,122.88
2023-02-17T18:17:11.083Z,129.27
2023-02-17T18:19:41.722Z,101.85
2023-02-17T18:22:09.905Z,85.00
2023-02-17T18:24:39.489Z,79.97
2023-02-17T18:27:08.151Z,101.82
2023-02-17T18:29:36.941Z,96.60
2023-02-17T18:32:05.832Z,78.60
2023-02-17T18:34:35.866Z,81.60
2023-02-17T18:37:07.279Z,77.68
2023-02-17T18:39:38.839Z,73.22
2023-02-17T18:42:06.850Z,66.95
2023-02-17T18:44:36.178Z,67.50
2023-02-17T18:47:04.456Z,74.22
2023-02-17T18:49:34.138Z,66.50
2023-02-17T18:52:03.286Z,68.90
2023-02-17T18:54:31.416Z,67.43
2023-02-17T18:56:59.699Z,62.88
2023-02-17T18:59:28.304Z,62.45
2023-02-17T19:01:56.763Z,65.97
2023-02-17T19:04:25.284Z,79.90
2023-02-17T19:07:04.706Z,73.03
2023-02-17T19:09:51.081Z,74.68
2023-02-17T19:12:19.730Z,68.47
2023-02-17T19:14:53.652Z,59.25
2023-02-17T19:17:24.976Z,63.00
2023-02-17T19:19:53.951Z,65.53
2023-02-17T19:22:23.390Z,79.50
2023-02-17T19:24:54.308Z,113.40
2023-02-17T19:27:22.927Z,95.85
2023-02-17T19:29:53.030Z,66.47
2023-02-17T19:32:42.872Z,115.65
2023-02-17T19:35:13.245Z,151.63
2023-02-17T19:37:41.727Z,68.78
2023-02-17T19:40:10.612Z,60.97
2023-02-17T19:42:40.809Z,63.85
2023-02-17T19:45:09.581Z,57.90
2023-02-17T19:47:37.811Z,57.20
2023-02-17T19:50:06.679Z,67.15
2023-02-17T19:52:37.357Z,71.93
2023-02-17T19:55:06.686Z,60.50
2023-02-17T19:57:37.009Z,73.82
2023-02-17T20:00:08.085Z,70.25
2023-02-17T20:02:38.251Z,78.65
2023-02-17T20:05:06.561Z,64.70
2023-02-17T20:07:36.818Z,58.30
2023-02-17T20:10:24.959Z,63.85
2023-02-17T20:12:53.599Z,65.13
2023-02-17T20:15:24.551Z,50.90
2023-02-17T20:17:55.318Z,80.18
2023-02-17T20:20:25.209Z,54.88
2023-02-17T20:22:54.273Z,52.97
2023-02-17T20:25:22.956Z,60.90
2023-02-17T20:27:53.988Z,52.75
2023-02-17T20:30:22.719Z,58.33
2023-02-17T20:32:51.190Z,61.65
2023-02-17T20:35:19.179Z,64.38
2023-02-17T20:37:47.142Z,59.25
2023-02-17T20:40:16.929Z,52.75
2023-02-17T20:42:45.150Z,51.22
2023-02-17T20:45:13.877Z,56.05
2023-02-17T20:47:42.406Z,50.15
2023-02-17T20:50:21.546Z,59.88
2023-02-17T20:52:50.290Z,48.65
2023-02-17T20:55:20.361Z,52.10
2023-02-17T20:57:48.667Z,50.28
2023-02-17T21:00:20.686Z,50.08
2023-02-17T21:02:49.615Z,52.33
2023-02-17T21:05:18.008Z,54.25
2023-02-17T21:07:47.854Z,45.58
2023-02-17T21:10:23.183Z,47.63
2023-02-17T21:12:51.572Z,51.38
2023-02-17T21:15:22.789Z,50.00
2023-02-17T21:17:51.108Z,55.47
2023-02-17T21:20:21.254Z,64.68
2023-02-17T21:22:50.814Z,69.82
2023-02-17T21:25:21.556Z,53.53
2023-02-17T21:27:49.350Z,41.28
2023-02-17T21:30:17.485Z,41.75
2023-02-17T21:32:46.210Z,41.10
2023-02-17T21:35:13.733Z,45.17
2023-02-17T21:37:41.613Z,45.30
2023-02-17T21:40:10.472Z,38.05
2023-02-17T21:42:59.684Z,37.20
2023-02-17T21:45:27.307Z,38.85
2023-02-17T21:47:55.150Z,36.25
2023-02-17T21:50:23.371Z,47.85
2023-02-17T21:52:53.644Z,38.80
2023-02-17T21:55:21.759Z,36.22
2023-02-17T21:57:49.759Z,32.88
2023-02-17T22:00:18.249Z,43.60
2023-02-17T22:02:46.192Z,39.10
2023-02-17T22:05:13.670Z,52.25
2023-02-17T22:07:41.236Z,40.17
2023-02-17T22:10:08.933Z,87.78
2023-02-17T22:12:37.510Z,60.58
2023-02-17T22:15:06.148Z,65.35
2023-02-17T22:17:35.628Z,49.55
2023-02-17T22:20:04.753Z,53.17
2023-02-17T22:22:32.226Z,48.97
2023-02-17T22:24:59.914Z,39.67
2023-02-17T22:27:27.558Z,43.20
2023-02-17T22:29:55.987Z,46.15
2023-02-17T22:32:23.591Z,46.47
2023-02-17T22:34:51.266Z,46.40
2023-02-17T22:37:18.857Z,47.13
2023-02-17T22:39:46.466Z,47.85
2023-02-17T22:42:14.084Z,39.05
2023-02-17T22:44:41.876Z,40.45
2023-02-17T22:47:09.340Z,42.53
2023-02-17T22:49:36.891Z,40.80
2023-02-17T22:52:04.629Z,37.72
2023-02-17T22:54:32.155Z,40.00
2023-02-17T22:57:00.582Z,41.92
2023-02-17T22:59:27.964Z,43.08
2023-02-17T23:01:59.394Z,37.92
2023-02-17T23:04:27.039Z,38.00
2023-02-17T23:06:54.495Z,59.30
2023-02-17T23:09:21.924Z,59.38
2023-02-17T23:11:54.592Z,54.17
2023-02-17T23:14:30.812Z,62.08
2023-02-17T23:17:01.467Z,48.53
2023-02-17T23:19:29.595Z,41.63
2023-02-17T23:22:03.536Z,40.22
2023-02-17T23:24:31.224Z,39.28
2023-02-17T23:27:00.591Z,37.35
2023-02-17T23:29:29.588Z,40.22
2023-02-17T23:31:57.094Z,39.35
2023-02-17T23:34:25.026Z,35.85
2023-02-17T23:36:52.290Z,44.08
2023-02-17T23:39:19.573Z,35.15
2023-02-17T23:41:47.061Z,32.00
2023-02-17T23:44:15.635Z,33.83
2023-02-17T23:46:44.192Z,29.55
2023-02-17T23:49:15.325Z,24.23
2023-02-17T23:51:43.997Z,28.58
2023-02-17T23:54:11.536Z,27.33
2023-02-17T23:56:39.144Z,27.70
2023-02-17T23:59:06.486Z,25.92
